Morrisville, Missouri
Current Conditions -  °F | °C
As of 10:52 AM on Thursday 23 Oct 2014 (Local Time) from KSGF Reporting Station
Light Rain Light Rain  
Wind Chill: 54°   Ceiling: 4300
Heat Index: 54°   Visibility: 10mi
Dew Point: 48°   Wind: 7mph
Humidity: 80%   Direction: 160°SSE
Pressure: 30.19"   Gusts: NA
Location:  37.48°N, 93.43°W
Report Text: KSGF 231552Z 16006KT 10SM -RA SCT028 BKN043 OVC095 12/09 A3019 RMK AO2 SLP221 P0001 T01220089
Loading
Personal Weather Stations






























Interactive Weather Map New forecast layout! Learn more

10-Day Weather Forecast

Advertisements
Track Severe Weather on mobile